sensor_id;sensor_type;location;lat;lon;timestamp;P1;durP1;ratioP1;P2;durP2;ratioP2
23346;SDS011;36852;45.466;11.066;2023-12-04T00:01:32;7.47;;;5.70;;
23346;SDS011;36852;45.466;11.066;2023-12-04T00:06:48;10.08;;;5.72;;
23346;SDS011;36852;45.466;11.066;2023-12-04T00:09:16;9.70;;;6.65;;
23346;SDS011;36852;45.466;11.066;2023-12-04T00:11:44;9.18;;;6.35;;
23346;SDS011;36852;45.466;11.066;2023-12-04T00:14:12;11.03;;;6.58;;
23346;SDS011;36852;45.466;11.066;2023-12-04T00:16:41;9.70;;;6.67;;
23346;SDS011;36852;45.466;11.066;2023-12-04T00:19:09;10.53;;;6.37;;
23346;SDS011;36852;45.466;11.066;2023-12-04T00:21:37;9.88;;;6.12;;
23346;SDS011;36852;45.466;11.066;2023-12-04T00:24:09;11.08;;;5.83;;
23346;SDS011;36852;45.466;11.066;2023-12-04T00:26:37;9.98;;;6.42;;
23346;SDS011;36852;45.466;11.066;2023-12-04T00:29:05;10.88;;;5.90;;
23346;SDS011;36852;45.466;11.066;2023-12-04T00:31:33;9.50;;;5.95;;
23346;SDS011;36852;45.466;11.066;2023-12-04T00:34:01;10.80;;;6.22;;
23346;SDS011;36852;45.466;11.066;2023-12-04T00:36:29;10.58;;;6.15;;
23346;SDS011;36852;45.466;11.066;2023-12-04T00:38:57;8.25;;;5.50;;
23346;SDS011;36852;45.466;11.066;2023-12-04T00:41:25;13.75;;;6.70;;
23346;SDS011;36852;45.466;11.066;2023-12-04T00:43:54;11.05;;;5.95;;
23346;SDS011;36852;45.466;11.066;2023-12-04T00:46:21;10.82;;;5.90;;
23346;SDS011;36852;45.466;11.066;2023-12-04T00:48:50;11.40;;;6.08;;
23346;SDS011;36852;45.466;11.066;2023-12-04T00:51:19;11.60;;;6.45;;
23346;SDS011;36852;45.466;11.066;2023-12-04T00:53:47;9.93;;;6.58;;
23346;SDS011;36852;45.466;11.066;2023-12-04T00:56:16;9.53;;;5.80;;
23346;SDS011;36852;45.466;11.066;2023-12-04T00:58:43;10.70;;;6.22;;
23346;SDS011;36852;45.466;11.066;2023-12-04T01:01:13;11.05;;;6.75;;
23346;SDS011;36852;45.466;11.066;2023-12-04T01:03:41;11.60;;;6.37;;
23346;SDS011;36852;45.466;11.066;2023-12-04T01:06:19;11.40;;;6.45;;
23346;SDS011;36852;45.466;11.066;2023-12-04T01:08:48;9.80;;;6.33;;
23346;SDS011;36852;45.466;11.066;2023-12-04T01:11:17;9.83;;;5.90;;
23346;SDS011;36852;45.466;11.066;2023-12-04T01:13:45;10.03;;;6.03;;
23346;SDS011;36852;45.466;11.066;2023-12-04T01:16:13;12.80;;;7.03;;
23346;SDS011;36852;45.466;11.066;2023-12-04T01:18:51;10.60;;;6.10;;
23346;SDS011;36852;45.466;11.066;2023-12-04T01:21:20;11.10;;;6.80;;
23346;SDS011;36852;45.466;11.066;2023-12-04T01:23:49;9.68;;;6.40;;
23346;SDS011;36852;45.466;11.066;2023-12-04T01:26:19;7.45;;;5.53;;
23346;SDS011;36852;45.466;11.066;2023-12-04T01:28:48;10.32;;;6.08;;
23346;SDS011;36852;45.466;11.066;2023-12-04T01:31:16;9.93;;;6.95;;
23346;SDS011;36852;45.466;11.066;2023-12-04T01:33:44;12.37;;;6.60;;
23346;SDS011;36852;45.466;11.066;2023-12-04T01:36:12;9.70;;;6.20;;
23346;SDS011;36852;45.466;11.066;2023-12-04T01:38:40;10.98;;;5.78;;
23346;SDS011;36852;45.466;11.066;2023-12-04T01:41:11;10.68;;;6.55;;
23346;SDS011;36852;45.466;11.066;2023-12-04T01:43:43;10.30;;;6.45;;
23346;SDS011;36852;45.466;11.066;2023-12-04T01:46:11;13.13;;;6.92;;
23346;SDS011;36852;45.466;11.066;2023-12-04T01:48:44;10.28;;;6.58;;
23346;SDS011;36852;45.466;11.066;2023-12-04T01:51:17;10.93;;;6.90;;
23346;SDS011;36852;45.466;11.066;2023-12-04T01:53:47;8.83;;;6.60;;
23346;SDS011;36852;45.466;11.066;2023-12-04T01:56:19;11.20;;;6.97;;
23346;SDS011;36852;45.466;11.066;2023-12-04T01:58:47;11.15;;;6.90;;
23346;SDS011;36852;45.466;11.066;2023-12-04T02:01:16;10.93;;;6.92;;
23346;SDS011;36852;45.466;11.066;2023-12-04T02:03:46;10.88;;;6.53;;
23346;SDS011;36852;45.466;11.066;2023-12-04T02:06:14;11.18;;;7.35;;
23346;SDS011;36852;45.466;11.066;2023-12-04T02:08:44;15.90;;;8.38;;
23346;SDS011;36852;45.466;11.066;2023-12-04T02:11:14;13.83;;;7.75;;
23346;SDS011;36852;45.466;11.066;2023-12-04T02:13:42;11.43;;;7.42;;
23346;SDS011;36852;45.466;11.066;2023-12-04T02:16:10;13.35;;;7.97;;
23346;SDS011;36852;45.466;11.066;2023-12-04T02:18:42;10.95;;;7.65;;
23346;SDS011;36852;45.466;11.066;2023-12-04T02:21:11;12.93;;;7.60;;
23346;SDS011;36852;45.466;11.066;2023-12-04T02:23:38;13.75;;;7.67;;
23346;SDS011;36852;45.466;11.066;2023-12-04T02:26:15;12.53;;;7.70;;
23346;SDS011;36852;45.466;11.066;2023-12-04T02:28:42;13.85;;;7.97;;
23346;SDS011;36852;45.466;11.066;2023-12-04T02:31:13;16.00;;;8.65;;
23346;SDS011;36852;45.466;11.066;2023-12-04T02:33:44;12.70;;;8.23;;
23346;SDS011;36852;45.466;11.066;2023-12-04T02:36:14;14.15;;;8.50;;
23346;SDS011;36852;45.466;11.066;2023-12-04T02:38:43;14.78;;;8.63;;
23346;SDS011;36852;45.466;11.066;2023-12-04T02:41:12;12.88;;;8.25;;
23346;SDS011;36852;45.466;11.066;2023-12-04T02:43:40;13.53;;;6.97;;
23346;SDS011;36852;45.466;11.066;2023-12-04T02:46:11;12.95;;;8.85;;
23346;SDS011;36852;45.466;11.066;2023-12-04T02:48:40;13.28;;;8.03;;
23346;SDS011;36852;45.466;11.066;2023-12-04T02:51:09;13.78;;;8.63;;
23346;SDS011;36852;45.466;11.066;2023-12-04T02:53:41;15.48;;;7.83;;
23346;SDS011;36852;45.466;11.066;2023-12-04T02:56:12;14.55;;;8.80;;
23346;SDS011;36852;45.466;11.066;2023-12-04T02:58:40;14.05;;;8.58;;
23346;SDS011;36852;45.466;11.066;2023-12-04T03:01:08;14.10;;;9.48;;
23346;SDS011;36852;45.466;11.066;2023-12-04T03:03:36;12.43;;;7.78;;
23346;SDS011;36852;45.466;11.066;2023-12-04T03:06:06;11.85;;;7.97;;
23346;SDS011;36852;45.466;11.066;2023-12-04T03:08:35;12.53;;;7.83;;
23346;SDS011;36852;45.466;11.066;2023-12-04T03:11:03;12.68;;;8.13;;
23346;SDS011;36852;45.466;11.066;2023-12-04T03:13:32;11.80;;;8.28;;
23346;SDS011;36852;45.466;11.066;2023-12-04T03:16:04;12.20;;;7.87;;
23346;SDS011;36852;45.466;11.066;2023-12-04T03:18:33;13.75;;;8.15;;
23346;SDS011;36852;45.466;11.066;2023-12-04T03:21:03;13.75;;;7.60;;
23346;SDS011;36852;45.466;11.066;2023-12-04T03:23:32;13.83;;;8.33;;
23346;SDS011;36852;45.466;11.066;2023-12-04T03:26:00;12.68;;;8.03;;
23346;SDS011;36852;45.466;11.066;2023-12-04T03:28:31;14.58;;;8.68;;
23346;SDS011;36852;45.466;11.066;2023-12-04T03:31:00;13.43;;;7.97;;
23346;SDS011;36852;45.466;11.066;2023-12-04T03:33:28;9.78;;;6.60;;
23346;SDS011;36852;45.466;11.066;2023-12-04T03:35:56;16.10;;;7.95;;
23346;SDS011;36852;45.466;11.066;2023-12-04T03:38:24;16.52;;;8.30;;
23346;SDS011;36852;45.466;11.066;2023-12-04T03:40:52;11.65;;;7.90;;
23346;SDS011;36852;45.466;11.066;2023-12-04T03:43:19;12.85;;;8.10;;
23346;SDS011;36852;45.466;11.066;2023-12-04T03:45:51;11.55;;;8.28;;
23346;SDS011;36852;45.466;11.066;2023-12-04T03:48:19;11.80;;;7.47;;
23346;SDS011;36852;45.466;11.066;2023-12-04T03:50:48;12.37;;;8.20;;
23346;SDS011;36852;45.466;11.066;2023-12-04T03:53:16;13.05;;;8.00;;
23346;SDS011;36852;45.466;11.066;2023-12-04T03:55:45;14.38;;;7.65;;
23346;SDS011;36852;45.466;11.066;2023-12-04T03:58:13;14.07;;;7.80;;
23346;SDS011;36852;45.466;11.066;2023-12-04T04:00:41;14.98;;;7.30;;
23346;SDS011;36852;45.466;11.066;2023-12-04T04:03:11;13.45;;;7.35;;
23346;SDS011;36852;45.466;11.066;2023-12-04T04:05:39;13.10;;;8.05;;
23346;SDS011;36852;45.466;11.066;2023-12-04T04:08:07;13.45;;;7.87;;
23346;SDS011;36852;45.466;11.066;2023-12-04T04:10:36;12.98;;;7.50;;
23346;SDS011;36852;45.466;11.066;2023-12-04T04:15:38;14.35;;;8.00;;
23346;SDS011;36852;45.466;11.066;2023-12-04T04:18:07;13.28;;;7.53;;
23346;SDS011;36852;45.466;11.066;2023-12-04T04:20:36;9.40;;;6.78;;
23346;SDS011;36852;45.466;11.066;2023-12-04T04:23:03;10.50;;;7.22;;
23346;SDS011;36852;45.466;11.066;2023-12-04T04:25:34;13.78;;;7.67;;
23346;SDS011;36852;45.466;11.066;2023-12-04T04:28:02;10.08;;;7.47;;
23346;SDS011;36852;45.466;11.066;2023-12-04T04:30:30;9.70;;;6.67;;
23346;SDS011;36852;45.466;11.066;2023-12-04T04:32:58;12.07;;;7.53;;
23346;SDS011;36852;45.466;11.066;2023-12-04T04:35:26;10.95;;;7.33;;
23346;SDS011;36852;45.466;11.066;2023-12-04T04:37:54;11.12;;;7.47;;
23346;SDS011;36852;45.466;11.066;2023-12-04T04:40:22;10.68;;;7.00;;
23346;SDS011;36852;45.466;11.066;2023-12-04T04:42:50;11.03;;;7.03;;
23346;SDS011;36852;45.466;11.066;2023-12-04T04:45:18;10.80;;;7.33;;
23346;SDS011;36852;45.466;11.066;2023-12-04T04:47:46;9.80;;;6.97;;
23346;SDS011;36852;45.466;11.066;2023-12-04T04:50:14;12.03;;;7.58;;
23346;SDS011;36852;45.466;11.066;2023-12-04T04:52:42;11.00;;;7.55;;
23346;SDS011;36852;45.466;11.066;2023-12-04T04:55:10;13.20;;;8.08;;
23346;SDS011;36852;45.466;11.066;2023-12-04T04:57:39;12.25;;;7.80;;
23346;SDS011;36852;45.466;11.066;2023-12-04T05:00:07;11.78;;;7.85;;
23346;SDS011;36852;45.466;11.066;2023-12-04T05:02:36;11.18;;;7.25;;
23346;SDS011;36852;45.466;11.066;2023-12-04T05:05:06;13.22;;;8.05;;
23346;SDS011;36852;45.466;11.066;2023-12-04T05:07:35;12.18;;;7.58;;
23346;SDS011;36852;45.466;11.066;2023-12-04T05:10:02;11.65;;;8.18;;
23346;SDS011;36852;45.466;11.066;2023-12-04T05:12:32;12.90;;;7.78;;
23346;SDS011;36852;45.466;11.066;2023-12-04T05:15:00;11.30;;;7.70;;
23346;SDS011;36852;45.466;11.066;2023-12-04T05:17:28;10.18;;;6.97;;
23346;SDS011;36852;45.466;11.066;2023-12-04T05:20:06;12.98;;;8.08;;
23346;SDS011;36852;45.466;11.066;2023-12-04T05:22:36;13.88;;;7.87;;
23346;SDS011;36852;45.466;11.066;2023-12-04T05:25:06;12.47;;;7.65;;
23346;SDS011;36852;45.466;11.066;2023-12-04T05:27:37;12.03;;;7.10;;
23346;SDS011;36852;45.466;11.066;2023-12-04T05:30:05;12.70;;;8.23;;
23346;SDS011;36852;45.466;11.066;2023-12-04T06:31:57;14.53;;;8.88;;
23346;SDS011;36852;45.466;11.066;2023-12-04T06:34:28;13.95;;;8.63;;
23346;SDS011;36852;45.466;11.066;2023-12-04T06:36:57;14.95;;;10.18;;
23346;SDS011;36852;45.466;11.066;2023-12-04T06:39:27;13.50;;;9.00;;
23346;SDS011;36852;45.466;11.066;2023-12-04T06:41:59;13.85;;;9.05;;
23346;SDS011;36852;45.466;11.066;2023-12-04T06:44:27;12.90;;;8.83;;
23346;SDS011;36852;45.466;11.066;2023-12-04T06:46:56;17.12;;;10.53;;
23346;SDS011;36852;45.466;11.066;2023-12-04T06:49:31;13.13;;;8.40;;
23346;SDS011;36852;45.466;11.066;2023-12-04T06:52:00;14.90;;;8.80;;
23346;SDS011;36852;45.466;11.066;2023-12-04T06:54:28;15.75;;;10.43;;
23346;SDS011;36852;45.466;11.066;2023-12-04T06:56:56;16.48;;;10.50;;
23346;SDS011;36852;45.466;11.066;2023-12-04T06:59:25;14.78;;;9.73;;
23346;SDS011;36852;45.466;11.066;2023-12-04T07:01:53;14.65;;;9.80;;
23346;SDS011;36852;45.466;11.066;2023-12-04T07:04:21;16.75;;;9.33;;
23346;SDS011;36852;45.466;11.066;2023-12-04T07:06:49;16.60;;;9.80;;
23346;SDS011;36852;45.466;11.066;2023-12-04T07:09:18;16.05;;;9.03;;
23346;SDS011;36852;45.466;11.066;2023-12-04T07:11:47;19.15;;;11.90;;
23346;SDS011;36852;45.466;11.066;2023-12-04T07:14:15;15.58;;;9.48;;
23346;SDS011;36852;45.466;11.066;2023-12-04T07:16:43;14.45;;;9.53;;
23346;SDS011;36852;45.466;11.066;2023-12-04T07:19:11;18.05;;;10.72;;
23346;SDS011;36852;45.466;11.066;2023-12-04T07:21:43;15.72;;;9.48;;
23346;SDS011;36852;45.466;11.066;2023-12-04T07:24:11;13.90;;;9.03;;
23346;SDS011;36852;45.466;11.066;2023-12-04T07:26:39;13.28;;;9.50;;
23346;SDS011;36852;45.466;11.066;2023-12-04T07:29:07;19.37;;;10.72;;
23346;SDS011;36852;45.466;11.066;2023-12-04T07:31:35;18.35;;;11.25;;
23346;SDS011;36852;45.466;11.066;2023-12-04T07:34:02;20.02;;;11.22;;
23346;SDS011;36852;45.466;11.066;2023-12-04T07:36:31;16.17;;;10.23;;
23346;SDS011;36852;45.466;11.066;2023-12-04T07:38:58;16.82;;;10.25;;
23346;SDS011;36852;45.466;11.066;2023-12-04T07:41:26;16.48;;;10.98;;
23346;SDS011;36852;45.466;11.066;2023-12-04T07:43:54;18.62;;;11.35;;
23346;SDS011;36852;45.466;11.066;2023-12-04T07:46:23;21.85;;;11.97;;
23346;SDS011;36852;45.466;11.066;2023-12-04T07:48:51;19.60;;;12.13;;
23346;SDS011;36852;45.466;11.066;2023-12-04T07:51:21;24.63;;;12.10;;
23346;SDS011;36852;45.466;11.066;2023-12-04T07:53:48;20.50;;;12.33;;
23346;SDS011;36852;45.466;11.066;2023-12-04T07:56:17;19.70;;;11.18;;
23346;SDS011;36852;45.466;11.066;2023-12-04T07:58:44;18.02;;;11.20;;
23346;SDS011;36852;45.466;11.066;2023-12-04T08:01:13;19.87;;;11.48;;
23346;SDS011;36852;45.466;11.066;2023-12-04T08:03:41;20.10;;;10.98;;
23346;SDS011;36852;45.466;11.066;2023-12-04T08:06:09;23.00;;;12.65;;
23346;SDS011;36852;45.466;11.066;2023-12-04T08:08:37;41.68;;;20.17;;
23346;SDS011;36852;45.466;11.066;2023-12-04T08:11:06;47.27;;;22.98;;
23346;SDS011;36852;45.466;11.066;2023-12-04T08:13:37;48.28;;;21.12;;
23346;SDS011;36852;45.466;11.066;2023-12-04T08:16:13;35.08;;;17.10;;
23346;SDS011;36852;45.466;11.066;2023-12-04T08:18:42;45.98;;;23.02;;
23346;SDS011;36852;45.466;11.066;2023-12-04T08:21:11;65.75;;;31.65;;
23346;SDS011;36852;45.466;11.066;2023-12-04T08:23:40;29.67;;;14.93;;
23346;SDS011;36852;45.466;11.066;2023-12-04T08:26:08;26.30;;;13.48;;
23346;SDS011;36852;45.466;11.066;2023-12-04T08:28:36;29.55;;;12.18;;
23346;SDS011;36852;45.466;11.066;2023-12-04T08:31:05;16.95;;;10.65;;
23346;SDS011;36852;45.466;11.066;2023-12-04T08:33:35;17.62;;;10.05;;
23346;SDS011;36852;45.466;11.066;2023-12-04T08:36:05;17.70;;;10.38;;
23346;SDS011;36852;45.466;11.066;2023-12-04T08:38:33;18.60;;;11.05;;
23346;SDS011;36852;45.466;11.066;2023-12-04T08:41:01;14.60;;;9.95;;
23346;SDS011;36852;45.466;11.066;2023-12-04T08:43:30;18.37;;;9.45;;
23346;SDS011;36852;45.466;11.066;2023-12-04T08:45:58;13.62;;;9.28;;
23346;SDS011;36852;45.466;11.066;2023-12-04T08:48:27;15.60;;;9.60;;
23346;SDS011;36852;45.466;11.066;2023-12-04T08:50:55;16.65;;;9.90;;
23346;SDS011;36852;45.466;11.066;2023-12-04T08:53:23;16.75;;;9.78;;
23346;SDS011;36852;45.466;11.066;2023-12-04T08:55:54;23.05;;;10.30;;
23346;SDS011;36852;45.466;11.066;2023-12-04T08:58:27;18.85;;;9.53;;
23346;SDS011;36852;45.466;11.066;2023-12-04T09:00:59;18.23;;;10.28;;
23346;SDS011;36852;45.466;11.066;2023-12-04T09:03:47;15.10;;;10.90;;
23346;SDS011;36852;45.466;11.066;2023-12-04T09:06:26;15.43;;;10.43;;
23346;SDS011;36852;45.466;11.066;2023-12-04T09:09:02;16.95;;;10.32;;
23346;SDS011;36852;45.466;11.066;2023-12-04T09:11:45;18.17;;;10.45;;
23346;SDS011;36852;45.466;11.066;2023-12-04T09:14:13;17.85;;;10.95;;
23346;SDS011;36852;45.466;11.066;2023-12-04T09:16:44;18.27;;;10.53;;
23346;SDS011;36852;45.466;11.066;2023-12-04T09:19:12;16.80;;;11.15;;
23346;SDS011;36852;45.466;11.066;2023-12-04T09:21:40;15.95;;;10.55;;
23346;SDS011;36852;45.466;11.066;2023-12-04T09:24:08;12.82;;;9.23;;
23346;SDS011;36852;45.466;11.066;2023-12-04T09:26:36;15.70;;;10.40;;
23346;SDS011;36852;45.466;11.066;2023-12-04T09:29:04;17.37;;;10.38;;
23346;SDS011;36852;45.466;11.066;2023-12-04T09:31:32;18.02;;;10.70;;
23346;SDS011;36852;45.466;11.066;2023-12-04T09:34:01;18.05;;;10.53;;
23346;SDS011;36852;45.466;11.066;2023-12-04T09:36:29;20.08;;;11.85;;
23346;SDS011;36852;45.466;11.066;2023-12-04T09:38:58;19.48;;;11.10;;
23346;SDS011;36852;45.466;11.066;2023-12-04T09:41:26;19.00;;;12.55;;
23346;SDS011;36852;45.466;11.066;2023-12-04T09:43:54;22.35;;;12.45;;
23346;SDS011;36852;45.466;11.066;2023-12-04T09:46:22;26.97;;;13.98;;
23346;SDS011;36852;45.466;11.066;2023-12-04T09:48:52;22.55;;;14.20;;
23346;SDS011;36852;45.466;11.066;2023-12-04T09:51:21;21.25;;;12.68;;
23346;SDS011;36852;45.466;11.066;2023-12-04T09:54:05;20.80;;;10.78;;
23346;SDS011;36852;45.466;11.066;2023-12-04T09:56:35;18.30;;;12.50;;
23346;SDS011;36852;45.466;11.066;2023-12-04T09:59:05;20.05;;;12.05;;
23346;SDS011;36852;45.466;11.066;2023-12-04T10:01:46;18.40;;;12.43;;
23346;SDS011;36852;45.466;11.066;2023-12-04T10:04:15;20.35;;;12.75;;
23346;SDS011;36852;45.466;11.066;2023-12-04T10:06:43;16.45;;;11.60;;
23346;SDS011;36852;45.466;11.066;2023-12-04T10:09:12;20.43;;;12.23;;
23346;SDS011;36852;45.466;11.066;2023-12-04T10:11:41;18.98;;;11.83;;
23346;SDS011;36852;45.466;11.066;2023-12-04T10:14:14;23.00;;;13.00;;
23346;SDS011;36852;45.466;11.066;2023-12-04T10:16:43;22.93;;;12.90;;
23346;SDS011;36852;45.466;11.066;2023-12-04T10:27:07;22.07;;;13.35;;
23346;SDS011;36852;45.466;11.066;2023-12-04T10:29:49;22.02;;;13.13;;
23346;SDS011;36852;45.466;11.066;2023-12-04T10:32:19;20.90;;;13.15;;
23346;SDS011;36852;45.466;11.066;2023-12-04T10:34:49;18.52;;;13.08;;
23346;SDS011;36852;45.466;11.066;2023-12-04T10:37:17;19.35;;;12.93;;
23346;SDS011;36852;45.466;11.066;2023-12-04T10:39:48;30.82;;;13.60;;
23346;SDS011;36852;45.466;11.066;2023-12-04T10:42:23;22.35;;;13.13;;
23346;SDS011;36852;45.466;11.066;2023-12-04T10:44:57;35.68;;;13.30;;
23346;SDS011;36852;45.466;11.066;2023-12-04T10:47:25;21.62;;;12.98;;
23346;SDS011;36852;45.466;11.066;2023-12-04T10:49:59;19.90;;;13.00;;
23346;SDS011;36852;45.466;11.066;2023-12-04T10:52:40;23.90;;;13.25;;
23346;SDS011;36852;45.466;11.066;2023-12-04T10:55:10;19.90;;;12.82;;
23346;SDS011;36852;45.466;11.066;2023-12-04T10:57:40;27.87;;;14.38;;
23346;SDS011;36852;45.466;11.066;2023-12-04T11:00:11;24.25;;;13.68;;
23346;SDS011;36852;45.466;11.066;2023-12-04T11:02:42;20.00;;;13.20;;
23346;SDS011;36852;45.466;11.066;2023-12-04T11:05:16;21.87;;;13.88;;
23346;SDS011;36852;45.466;11.066;2023-12-04T11:07:48;21.55;;;13.55;;
23346;SDS011;36852;45.466;11.066;2023-12-04T11:10:21;21.82;;;13.20;;
23346;SDS011;36852;45.466;11.066;2023-12-04T11:13:05;19.50;;;12.82;;
23346;SDS011;36852;45.466;11.066;2023-12-04T11:15:34;18.55;;;11.70;;
23346;SDS011;36852;45.466;11.066;2023-12-04T11:18:05;20.48;;;13.22;;
23346;SDS011;36852;45.466;11.066;2023-12-04T11:20:39;22.45;;;11.97;;
23346;SDS011;36852;45.466;11.066;2023-12-04T11:23:07;24.67;;;12.93;;
23346;SDS011;36852;45.466;11.066;2023-12-04T11:25:36;22.13;;;12.70;;
23346;SDS011;36852;45.466;11.066;2023-12-04T11:28:05;20.85;;;12.23;;
23346;SDS011;36852;45.466;11.066;2023-12-04T11:30:34;19.15;;;12.40;;
23346;SDS011;36852;45.466;11.066;2023-12-04T11:33:04;21.95;;;13.20;;
23346;SDS011;36852;45.466;11.066;2023-12-04T11:35:33;25.62;;;14.00;;
23346;SDS011;36852;45.466;11.066;2023-12-04T11:38:02;20.70;;;12.80;;
23346;SDS011;36852;45.466;11.066;2023-12-04T11:40:39;22.32;;;13.75;;
23346;SDS011;36852;45.466;11.066;2023-12-04T11:43:23;21.48;;;14.13;;
23346;SDS011;36852;45.466;11.066;2023-12-04T11:45:53;20.70;;;13.32;;
23346;SDS011;36852;45.466;11.066;2023-12-04T11:48:23;19.42;;;13.25;;
23346;SDS011;36852;45.466;11.066;2023-12-04T11:50:52;24.00;;;13.93;;
23346;SDS011;36852;45.466;11.066;2023-12-04T11:53:22;26.42;;;13.68;;
23346;SDS011;36852;45.466;11.066;2023-12-04T11:55:51;18.42;;;13.20;;
23346;SDS011;36852;45.466;11.066;2023-12-04T11:58:23;24.10;;;13.60;;
23346;SDS011;36852;45.466;11.066;2023-12-04T12:00:51;24.45;;;14.87;;
23346;SDS011;36852;45.466;11.066;2023-12-04T12:03:20;22.50;;;12.28;;
23346;SDS011;36852;45.466;11.066;2023-12-04T12:05:50;20.10;;;12.82;;
23346;SDS011;36852;45.466;11.066;2023-12-04T12:08:19;19.67;;;12.30;;
23346;SDS011;36852;45.466;11.066;2023-12-04T12:10:47;25.90;;;12.25;;
23346;SDS011;36852;45.466;11.066;2023-12-04T12:13:16;22.40;;;12.37;;
23346;SDS011;36852;45.466;11.066;2023-12-04T12:15:46;16.70;;;12.35;;
23346;SDS011;36852;45.466;11.066;2023-12-04T12:18:18;17.27;;;11.60;;
23346;SDS011;36852;45.466;11.066;2023-12-04T12:20:46;19.90;;;12.85;;
23346;SDS011;36852;45.466;11.066;2023-12-04T12:23:14;20.80;;;13.68;;
23346;SDS011;36852;45.466;11.066;2023-12-04T12:25:42;20.80;;;13.45;;
23346;SDS011;36852;45.466;11.066;2023-12-04T12:28:10;21.73;;;12.30;;
23346;SDS011;36852;45.466;11.066;2023-12-04T12:30:38;21.93;;;12.35;;
23346;SDS011;36852;45.466;11.066;2023-12-04T12:33:06;22.73;;;13.15;;
23346;SDS011;36852;45.466;11.066;2023-12-04T12:35:36;18.62;;;11.50;;
23346;SDS011;36852;45.466;11.066;2023-12-04T12:38:04;20.50;;;12.80;;
23346;SDS011;36852;45.466;11.066;2023-12-04T12:40:32;25.20;;;13.70;;
23346;SDS011;36852;45.466;11.066;2023-12-04T12:43:04;25.12;;;13.45;;
23346;SDS011;36852;45.466;11.066;2023-12-04T12:45:41;23.85;;;13.83;;
23346;SDS011;36852;45.466;11.066;2023-12-04T12:48:10;22.75;;;13.03;;
23346;SDS011;36852;45.466;11.066;2023-12-04T12:50:43;20.37;;;11.85;;
23346;SDS011;36852;45.466;11.066;2023-12-04T12:53:14;19.70;;;12.25;;
23346;SDS011;36852;45.466;11.066;2023-12-04T12:55:42;23.80;;;14.10;;
23346;SDS011;36852;45.466;11.066;2023-12-04T12:58:11;23.10;;;12.93;;
23346;SDS011;36852;45.466;11.066;2023-12-04T13:00:42;19.62;;;11.70;;
23346;SDS011;36852;45.466;11.066;2023-12-04T13:03:15;23.70;;;11.25;;
23346;SDS011;36852;45.466;11.066;2023-12-04T13:05:48;22.40;;;11.20;;
23346;SDS011;36852;45.466;11.066;2023-12-04T13:08:16;27.25;;;14.38;;
23346;SDS011;36852;45.466;11.066;2023-12-04T13:10:44;31.73;;;16.80;;
23346;SDS011;36852;45.466;11.066;2023-12-04T13:13:16;24.10;;;11.50;;
23346;SDS011;36852;45.466;11.066;2023-12-04T13:15:43;17.85;;;11.28;;
23346;SDS011;36852;45.466;11.066;2023-12-04T13:18:11;17.77;;;11.03;;
23346;SDS011;36852;45.466;11.066;2023-12-04T13:20:39;21.52;;;11.12;;
23346;SDS011;36852;45.466;11.066;2023-12-04T13:23:06;21.17;;;11.43;;
23346;SDS011;36852;45.466;11.066;2023-12-04T13:25:35;18.30;;;11.05;;
23346;SDS011;36852;45.466;11.066;2023-12-04T13:28:04;17.70;;;10.93;;
23346;SDS011;36852;45.466;11.066;2023-12-04T13:30:31;15.83;;;9.65;;
23346;SDS011;36852;45.466;11.066;2023-12-04T13:33:01;15.60;;;9.73;;
23346;SDS011;36852;45.466;11.066;2023-12-04T13:35:30;18.27;;;10.63;;
23346;SDS011;36852;45.466;11.066;2023-12-04T13:37:59;20.62;;;10.55;;
23346;SDS011;36852;45.466;11.066;2023-12-04T13:40:27;15.18;;;9.95;;
23346;SDS011;36852;45.466;11.066;2023-12-04T13:42:56;18.30;;;9.30;;
23346;SDS011;36852;45.466;11.066;2023-12-04T13:45:44;18.05;;;9.73;;
23346;SDS011;36852;45.466;11.066;2023-12-04T13:48:12;17.98;;;9.90;;
23346;SDS011;36852;45.466;11.066;2023-12-04T13:50:43;20.60;;;12.15;;
23346;SDS011;36852;45.466;11.066;2023-12-04T13:53:11;16.97;;;10.68;;
23346;SDS011;36852;45.466;11.066;2023-12-04T13:55:41;15.10;;;10.20;;
23346;SDS011;36852;45.466;11.066;2023-12-04T13:58:17;18.42;;;10.58;;
23346;SDS011;36852;45.466;11.066;2023-12-04T14:01:05;15.68;;;9.90;;
23346;SDS011;36852;45.466;11.066;2023-12-04T14:03:46;16.42;;;10.40;;
23346;SDS011;36852;45.466;11.066;2023-12-04T14:06:12;19.20;;;10.82;;
23346;SDS011;36852;45.466;11.066;2023-12-04T14:08:41;15.50;;;10.58;;
23346;SDS011;36852;45.466;11.066;2023-12-04T14:11:10;61.63;;;28.60;;
23346;SDS011;36852;45.466;11.066;2023-12-04T14:13:38;36.10;;;18.62;;
23346;SDS011;36852;45.466;11.066;2023-12-04T14:16:06;22.22;;;13.60;;
23346;SDS011;36852;45.466;11.066;2023-12-04T14:18:35;21.85;;;11.95;;
23346;SDS011;36852;45.466;11.066;2023-12-04T14:21:03;21.90;;;12.00;;
23346;SDS011;36852;45.466;11.066;2023-12-04T14:23:32;22.73;;;11.30;;
23346;SDS011;36852;45.466;11.066;2023-12-04T14:26:00;20.20;;;11.88;;
23346;SDS011;36852;45.466;11.066;2023-12-04T14:28:29;21.85;;;12.25;;
23346;SDS011;36852;45.466;11.066;2023-12-04T14:30:59;21.17;;;11.68;;
23346;SDS011;36852;45.466;11.066;2023-12-04T14:33:27;19.82;;;11.80;;
23346;SDS011;36852;45.466;11.066;2023-12-04T14:35:55;17.60;;;11.48;;
23346;SDS011;36852;45.466;11.066;2023-12-04T14:38:23;19.17;;;12.07;;
23346;SDS011;36852;45.466;11.066;2023-12-04T14:40:51;24.90;;;11.78;;
23346;SDS011;36852;45.466;11.066;2023-12-04T14:43:20;18.32;;;11.65;;
23346;SDS011;36852;45.466;11.066;2023-12-04T14:45:48;22.80;;;12.00;;
23346;SDS011;36852;45.466;11.066;2023-12-04T14:48:16;22.27;;;13.45;;
23346;SDS011;36852;45.466;11.066;2023-12-04T14:50:44;23.10;;;11.97;;
23346;SDS011;36852;45.466;11.066;2023-12-04T14:53:12;24.35;;;12.10;;
23346;SDS011;36852;45.466;11.066;2023-12-04T14:55:45;21.62;;;12.63;;
23346;SDS011;36852;45.466;11.066;2023-12-04T14:58:31;22.90;;;13.22;;
23346;SDS011;36852;45.466;11.066;2023-12-04T15:01:12;22.35;;;11.85;;
23346;SDS011;36852;45.466;11.066;2023-12-04T15:03:42;21.50;;;11.55;;
23346;SDS011;36852;45.466;11.066;2023-12-04T15:06:15;25.25;;;13.08;;
23346;SDS011;36852;45.466;11.066;2023-12-04T15:08:44;21.00;;;13.30;;
23346;SDS011;36852;45.466;11.066;2023-12-04T15:11:32;25.70;;;14.00;;
23346;SDS011;36852;45.466;11.066;2023-12-04T15:14:19;21.90;;;14.03;;
23346;SDS011;36852;45.466;11.066;2023-12-04T15:17:01;21.42;;;13.62;;
23346;SDS011;36852;45.466;11.066;2023-12-04T15:19:50;35.25;;;18.90;;
23346;SDS011;36852;45.466;11.066;2023-12-04T15:22:26;23.95;;;12.43;;
23346;SDS011;36852;45.466;11.066;2023-12-04T15:24:54;23.83;;;10.93;;
23346;SDS011;36852;45.466;11.066;2023-12-04T15:27:22;16.02;;;9.85;;
23346;SDS011;36852;45.466;11.066;2023-12-04T15:29:50;21.57;;;11.70;;
23346;SDS011;36852;45.466;11.066;2023-12-04T15:32:18;20.30;;;12.65;;
23346;SDS011;36852;45.466;11.066;2023-12-04T15:34:46;22.37;;;12.55;;
23346;SDS011;36852;45.466;11.066;2023-12-04T15:37:15;20.17;;;11.22;;
23346;SDS011;36852;45.466;11.066;2023-12-04T15:39:46;22.13;;;12.25;;
23346;SDS011;36852;45.466;11.066;2023-12-04T15:42:14;24.47;;;11.48;;
23346;SDS011;36852;45.466;11.066;2023-12-04T15:44:45;19.50;;;11.33;;